createdAt,value
2022-11-16T00:00:36.861Z,44.31
2022-11-16T00:01:36.922Z,44.17
2022-11-16T00:02:36.915Z,44.08
2022-11-16T00:03:36.787Z,43.98
2022-11-16T00:04:36.797Z,44.03
2022-11-16T00:05:36.776Z,44.12
2022-11-16T00:06:36.762Z,44.54
2022-11-16T00:07:36.842Z,44.50
2022-11-16T00:08:36.877Z,44.12
2022-11-16T00:09:36.739Z,44.74
2022-11-16T00:10:36.707Z,44.12
2022-11-16T00:11:36.692Z,44.45
2022-11-16T00:12:36.757Z,44.78
2022-11-16T00:13:36.661Z,44.26
2022-11-16T00:15:47.802Z,48.54
2022-11-16T00:16:48.806Z,47.99
2022-11-16T00:17:48.789Z,47.33
2022-11-16T00:18:48.781Z,47.52
2022-11-16T00:19:48.774Z,47.10
2022-11-16T00:20:48.777Z,47.36
2022-11-16T00:21:48.746Z,47.12
2022-11-16T00:22:48.738Z,46.99
2022-11-16T00:23:48.692Z,46.68
2022-11-16T00:24:48.715Z,46.57
2022-11-16T00:25:48.712Z,46.52
2022-11-16T00:26:49.704Z,46.63
2022-11-16T00:27:48.655Z,46.78
2022-11-16T00:28:48.640Z,46.57
2022-11-16T00:29:48.627Z,46.32
2022-11-16T00:30:48.629Z,46.26
2022-11-16T00:31:48.626Z,46.47
2022-11-16T00:32:48.605Z,46.21
2022-11-16T00:33:48.594Z,46.26
2022-11-16T00:34:48.581Z,46.21
2022-11-16T00:35:48.540Z,46.21
2022-11-16T00:36:48.540Z,46.47
2022-11-16T00:37:48.516Z,46.06
2022-11-16T00:38:48.526Z,46.16
2022-11-16T00:39:48.526Z,46.16
2022-11-16T00:40:48.499Z,46.16
2022-11-16T00:41:48.485Z,46.52
2022-11-16T00:42:48.457Z,46.06
2022-11-16T00:43:48.444Z,46.73
2022-11-16T00:44:48.425Z,46.63
2022-11-16T00:45:48.415Z,46.57
2022-11-16T00:46:48.403Z,46.06
2022-11-16T00:47:48.413Z,46.78
2022-11-16T00:48:48.368Z,46.01
2022-11-16T00:49:48.398Z,46.11
2022-11-16T00:50:48.366Z,46.63
2022-11-16T00:51:48.357Z,46.06
2022-11-16T00:52:48.349Z,46.21
2022-11-16T00:53:48.320Z,46.26
2022-11-16T00:54:48.305Z,46.16
2022-11-16T00:55:48.339Z,46.26
2022-11-16T00:56:48.282Z,46.32
2022-11-16T00:57:48.259Z,46.26
2022-11-16T00:58:48.290Z,46.32
2022-11-16T00:59:48.274Z,46.42
2022-11-16T01:00:48.227Z,46.47
2022-11-16T01:01:48.260Z,46.37
2022-11-16T01:02:48.214Z,46.47
2022-11-16T01:03:48.198Z,46.47
2022-11-16T01:04:48.179Z,46.73
2022-11-16T01:05:48.175Z,46.47
2022-11-16T01:06:48.172Z,46.47
2022-11-16T01:07:48.146Z,46.68
2022-11-16T01:08:48.110Z,46.42
2022-11-16T01:09:48.143Z,46.52
2022-11-16T01:10:48.119Z,46.57
2022-11-16T01:11:48.099Z,46.47
2022-11-16T01:12:48.082Z,46.47
2022-11-16T01:13:48.067Z,46.57
2022-11-16T01:14:48.050Z,46.57
2022-11-16T01:15:48.056Z,46.47
2022-11-16T01:16:48.004Z,46.57
2022-11-16T01:17:48.028Z,46.63
2022-11-16T01:18:47.977Z,46.68
2022-11-16T01:19:47.970Z,46.68
2022-11-16T01:20:47.951Z,46.68
2022-11-16T01:21:47.961Z,46.78
2022-11-16T01:22:47.961Z,46.68
2022-11-16T01:23:47.950Z,46.68
2022-11-16T01:24:47.924Z,46.68
2022-11-16T01:25:47.906Z,46.57
2022-11-16T01:26:47.907Z,46.73
2022-11-16T01:27:47.882Z,46.78
2022-11-16T01:28:47.857Z,47.15
2022-11-16T01:29:47.855Z,46.57
2022-11-16T01:30:47.880Z,46.83
2022-11-16T01:31:47.826Z,47.10
2022-11-16T01:32:47.819Z,46.73
2022-11-16T01:33:47.812Z,47.17
2022-11-16T01:34:47.796Z,47.15
2022-11-16T01:35:47.813Z,46.89
2022-11-16T01:36:47.751Z,46.89
2022-11-16T01:37:47.757Z,47.04
2022-11-16T01:38:47.737Z,47.04
2022-11-16T01:39:47.774Z,46.99
2022-11-16T01:40:47.730Z,47.04
2022-11-16T01:41:47.741Z,47.23
2022-11-16T01:42:47.686Z,46.99
2022-11-16T01:43:47.700Z,46.96
2022-11-16T01:44:47.675Z,47.10
2022-11-16T01:45:47.680Z,46.99
2022-11-16T01:46:47.639Z,47.33
2022-11-16T01:47:47.620Z,47.02
2022-11-16T01:48:47.681Z,46.96
2022-11-16T01:49:47.647Z,46.99
2022-11-16T01:50:47.597Z,46.99
2022-11-16T01:51:47.573Z,47.07
2022-11-16T01:52:47.571Z,47.20
2022-11-16T01:53:47.549Z,47.17
2022-11-16T01:54:47.541Z,47.23
2022-11-16T01:55:47.561Z,47.04
2022-11-16T01:56:47.509Z,47.07
2022-11-16T01:57:47.506Z,47.07
2022-11-16T01:58:47.472Z,47.12
2022-11-16T01:59:47.471Z,47.69
2022-11-16T02:00:47.472Z,47.26
2022-11-16T02:01:47.429Z,47.33
2022-11-16T02:02:47.435Z,47.28
2022-11-16T02:03:47.422Z,47.36
2022-11-16T02:04:47.380Z,47.39
2022-11-16T02:05:47.389Z,47.42
2022-11-16T02:06:47.454Z,47.69
2022-11-16T02:07:47.395Z,47.55
2022-11-16T02:08:47.363Z,47.39
2022-11-16T02:09:47.344Z,47.39
2022-11-16T02:10:47.321Z,48.07
2022-11-16T02:11:47.320Z,47.63
2022-11-16T02:12:47.294Z,47.47
2022-11-16T02:13:47.309Z,47.69
2022-11-16T02:14:47.271Z,47.55
2022-11-16T02:15:47.278Z,47.58
2022-11-16T02:16:47.220Z,47.82
2022-11-16T02:17:47.229Z,47.66
2022-11-16T02:18:47.254Z,48.07
2022-11-16T02:19:47.236Z,47.66
2022-11-16T02:20:47.200Z,48.24
2022-11-16T02:21:47.161Z,47.52
2022-11-16T02:22:47.162Z,47.63
2022-11-16T02:23:47.156Z,47.58
2022-11-16T02:24:47.124Z,47.77
2022-11-16T02:25:47.144Z,47.77
2022-11-16T02:26:47.152Z,47.60
2022-11-16T02:27:47.091Z,47.63
2022-11-16T02:28:47.073Z,47.82
2022-11-16T02:29:47.081Z,47.82
2022-11-16T02:30:47.040Z,47.88
2022-11-16T02:31:47.028Z,47.74
2022-11-16T02:32:47.033Z,47.82
2022-11-16T02:33:47.030Z,47.85
2022-11-16T02:34:47.028Z,47.96
2022-11-16T02:35:47.019Z,47.74
2022-11-16T02:36:46.984Z,47.77
2022-11-16T02:37:47.024Z,47.99
2022-11-16T02:38:46.978Z,47.93
2022-11-16T02:39:46.951Z,47.88
2022-11-16T02:40:46.920Z,47.93
2022-11-16T02:41:46.928Z,47.82
2022-11-16T02:42:46.887Z,47.93
2022-11-16T02:43:46.891Z,48.07
2022-11-16T02:44:46.891Z,48.26
2022-11-16T02:45:46.839Z,48.15
2022-11-16T02:46:46.860Z,48.12
2022-11-16T02:47:46.833Z,48.15
2022-11-16T02:48:46.813Z,47.96
2022-11-16T02:49:46.815Z,48.15
2022-11-16T02:50:46.794Z,48.29
2022-11-16T02:51:46.781Z,48.32
2022-11-16T02:52:46.800Z,48.18
2022-11-16T02:53:46.758Z,48.21
2022-11-16T02:54:46.747Z,48.04
2022-11-16T02:55:46.715Z,48.24
2022-11-16T02:56:46.761Z,48.40
2022-11-16T02:57:46.717Z,48.35
2022-11-16T02:58:46.727Z,48.32
2022-11-16T02:59:46.674Z,48.35
2022-11-16T03:00:46.733Z,48.26
2022-11-16T03:01:46.637Z,48.43
2022-11-16T03:02:46.631Z,48.43
2022-11-16T03:03:46.641Z,48.46
2022-11-16T03:04:46.612Z,48.32
2022-11-16T03:05:46.596Z,48.40
2022-11-16T03:06:46.791Z,48.46
2022-11-16T03:07:46.596Z,48.63
2022-11-16T03:08:46.575Z,48.49
2022-11-16T03:09:46.573Z,48.40
2022-11-16T03:10:46.551Z,48.57
2022-11-16T03:11:46.504Z,48.49
2022-11-16T03:12:46.514Z,48.60
2022-11-16T03:13:46.496Z,48.49
2022-11-16T03:14:46.492Z,48.68
2022-11-16T03:15:46.451Z,48.60
2022-11-16T03:16:46.468Z,48.51
2022-11-16T03:17:46.429Z,48.65
2022-11-16T03:18:46.445Z,48.68
2022-11-16T03:19:46.393Z,48.71
2022-11-16T03:20:46.408Z,48.60
2022-11-16T03:21:46.381Z,48.71
2022-11-16T03:22:46.384Z,48.65
2022-11-16T03:23:46.358Z,48.60
2022-11-16T03:24:46.348Z,48.88
2022-11-16T03:25:46.321Z,49.08
2022-11-16T03:26:46.311Z,48.68
2022-11-16T03:27:46.336Z,48.85
2022-11-16T03:28:46.287Z,48.74
2022-11-16T03:29:46.275Z,48.83
2022-11-16T03:30:46.260Z,48.83
2022-11-16T03:31:46.252Z,48.80
2022-11-16T03:32:46.270Z,48.77
2022-11-16T03:33:46.219Z,48.80
2022-11-16T03:34:46.226Z,48.71
2022-11-16T03:35:46.210Z,48.63
2022-11-16T03:36:46.202Z,49.17
2022-11-16T03:37:46.180Z,48.83
2022-11-16T03:38:46.171Z,48.88
2022-11-16T03:39:46.154Z,48.91
2022-11-16T03:40:46.155Z,48.83
2022-11-16T03:41:46.116Z,48.85
2022-11-16T03:42:46.116Z,48.91
2022-11-16T03:43:46.117Z,49.28
2022-11-16T03:44:46.090Z,48.94
2022-11-16T03:45:46.080Z,49.20
2022-11-16T03:46:46.043Z,48.97
2022-11-16T03:47:46.462Z,48.88
2022-11-16T03:48:46.701Z,48.83
2022-11-16T03:49:46.251Z,49.26
2022-11-16T03:50:46.507Z,48.83
2022-11-16T03:51:46.396Z,49.37
2022-11-16T03:52:45.992Z,49.14
2022-11-16T03:53:46.211Z,48.94
2022-11-16T03:54:46.115Z,48.91
2022-11-16T03:55:49.764Z,48.94
2022-11-16T03:56:45.932Z,49.14
2022-11-16T03:57:45.922Z,48.83
2022-11-16T03:58:45.945Z,48.88
2022-11-16T03:59:45.904Z,48.97
2022-11-16T04:00:45.976Z,49.40
2022-11-16T04:01:45.859Z,48.85
2022-11-16T04:02:45.845Z,48.83
2022-11-16T04:03:45.822Z,49.17
2022-11-16T04:04:45.836Z,48.74
2022-11-16T04:05:45.808Z,49.31
2022-11-16T04:06:45.826Z,49.28
2022-11-16T04:07:45.790Z,48.71
2022-11-16T04:08:45.786Z,48.77
2022-11-16T04:09:45.792Z,48.71
2022-11-16T04:10:45.739Z,48.88
2022-11-16T04:11:45.745Z,48.71
2022-11-16T04:12:45.730Z,48.80
2022-11-16T04:13:45.704Z,49.05
2022-11-16T04:14:45.703Z,48.94
2022-11-16T04:15:45.676Z,48.63
2022-11-16T04:16:45.659Z,48.65
2022-11-16T04:17:45.660Z,48.65
2022-11-16T04:18:45.625Z,49.00
2022-11-16T04:19:45.623Z,48.51
2022-11-16T04:20:45.623Z,48.65
2022-11-16T04:21:45.632Z,49.00
2022-11-16T04:22:45.593Z,48.85
2022-11-16T04:23:45.575Z,48.49
2022-11-16T04:24:45.583Z,48.46
2022-11-16T04:25:45.549Z,48.63
2022-11-16T04:26:45.565Z,48.46
2022-11-16T04:27:45.515Z,48.43
2022-11-16T04:28:45.565Z,48.63
2022-11-16T04:29:45.524Z,48.71
2022-11-16T04:30:45.486Z,48.24
2022-11-16T04:31:45.465Z,48.37
2022-11-16T04:32:45.495Z,48.18
2022-11-16T04:33:45.464Z,48.60
2022-11-16T04:34:45.442Z,48.54
2022-11-16T04:35:45.428Z,48.43
2022-11-16T04:36:45.391Z,48.37
2022-11-16T04:37:45.410Z,48.51
2022-11-16T04:38:45.420Z,48.12
2022-11-16T04:39:45.369Z,48.65
2022-11-16T04:40:45.375Z,48.54
2022-11-16T04:41:45.364Z,48.35
2022-11-16T04:42:45.367Z,47.93
2022-11-16T04:43:45.313Z,48.35
2022-11-16T04:44:45.304Z,47.93
2022-11-16T04:45:45.275Z,48.32
2022-11-16T04:46:45.282Z,48.26
2022-11-16T04:47:45.247Z,47.88
2022-11-16T04:48:45.237Z,47.99
2022-11-16T04:49:45.316Z,48.12
2022-11-16T04:50:45.220Z,47.88
2022-11-16T04:51:45.240Z,48.07
2022-11-16T04:52:45.219Z,48.43
2022-11-16T04:53:45.189Z,48.26
2022-11-16T04:54:45.176Z,48.15
2022-11-16T04:55:45.167Z,47.60
2022-11-16T04:56:45.146Z,47.69
2022-11-16T04:57:45.145Z,47.52
2022-11-16T04:58:45.120Z,47.93
2022-11-16T04:59:45.116Z,48.01
2022-11-16T05:00:45.092Z,47.71
2022-11-16T05:01:45.124Z,47.93
2022-11-16T05:02:45.070Z,47.52
2022-11-16T05:03:45.054Z,47.66
2022-11-16T05:04:45.071Z,47.85
2022-11-16T05:05:45.021Z,47.88
2022-11-16T05:06:45.007Z,47.90
2022-11-16T05:07:44.983Z,47.23
2022-11-16T05:08:45.031Z,47.60
2022-11-16T05:09:44.956Z,47.15
2022-11-16T05:10:44.968Z,47.63
2022-11-16T05:11:44.938Z,47.20
2022-11-16T05:12:44.959Z,47.20
2022-11-16T05:13:44.900Z,47.71
2022-11-16T05:14:44.902Z,47.66
2022-11-16T05:15:44.876Z,47.50
2022-11-16T05:16:44.887Z,47.71
2022-11-16T05:17:44.852Z,47.42
2022-11-16T05:18:44.877Z,47.58
2022-11-16T05:19:44.821Z,47.28
2022-11-16T05:20:44.825Z,47.52
2022-11-16T05:21:44.827Z,47.31
2022-11-16T05:22:44.796Z,47.36
2022-11-16T05:23:44.773Z,47.33
2022-11-16T05:24:44.793Z,47.02
2022-11-16T05:25:44.779Z,47.10
2022-11-16T05:26:44.741Z,47.52
2022-11-16T05:27:44.747Z,47.15
2022-11-16T05:28:44.742Z,47.20
2022-11-16T05:29:44.740Z,46.99
2022-11-16T05:30:44.714Z,46.83
2022-11-16T05:31:44.696Z,47.10
2022-11-16T05:32:44.688Z,47.07
2022-11-16T05:33:44.670Z,46.96
2022-11-16T05:34:44.706Z,47.02
2022-11-16T05:35:44.663Z,47.15
2022-11-16T05:36:44.625Z,47.10
2022-11-16T05:37:44.648Z,47.04
2022-11-16T05:38:44.627Z,47.15
2022-11-16T05:39:44.593Z,47.10
2022-11-16T05:40:44.628Z,46.94
2022-11-16T05:41:44.588Z,47.02
2022-11-16T05:42:44.576Z,46.99
2022-11-16T05:43:44.562Z,47.15
2022-11-16T05:44:44.534Z,46.83
2022-11-16T05:45:44.500Z,46.83
2022-11-16T05:46:44.497Z,46.94
2022-11-16T05:47:44.503Z,46.68
2022-11-16T05:48:44.529Z,46.57
2022-11-16T05:49:44.446Z,47.04
2022-11-16T05:50:44.471Z,46.89
2022-11-16T05:51:44.426Z,46.68
2022-11-16T05:52:44.429Z,46.89
2022-11-16T05:53:44.429Z,46.32
2022-11-16T05:54:44.415Z,46.68
2022-11-16T05:55:44.445Z,46.52
2022-11-16T05:56:44.358Z,46.57
2022-11-16T05:57:44.388Z,46.63
2022-11-16T05:58:44.330Z,46.37
2022-11-16T05:59:44.338Z,46.47
2022-11-16T06:00:44.329Z,46.11
2022-11-16T06:01:44.367Z,46.47
2022-11-16T06:02:44.350Z,46.21
2022-11-16T06:03:44.263Z,46.47
2022-11-16T06:04:44.249Z,46.06
2022-11-16T06:05:44.273Z,46.06
2022-11-16T06:06:44.250Z,46.21
2022-11-16T06:07:44.260Z,46.42
2022-11-16T06:08:44.226Z,46.21
2022-11-16T06:09:44.199Z,46.21
2022-11-16T06:10:44.241Z,46.32
2022-11-16T06:11:44.191Z,46.21
2022-11-16T06:12:44.174Z,46.16
2022-11-16T06:13:44.153Z,46.26
2022-11-16T06:14:44.143Z,46.26
2022-11-16T06:15:57.028Z,45.86
2022-11-16T06:16:44.165Z,46.26
2022-11-16T06:17:44.106Z,46.11
2022-11-16T06:18:44.097Z,45.81
2022-11-16T06:19:44.108Z,46.06
2022-11-16T06:20:44.094Z,46.21
2022-11-16T06:21:44.082Z,46.01
2022-11-16T06:22:44.032Z,45.96
2022-11-16T06:23:44.002Z,45.86
2022-11-16T06:24:44.032Z,45.76
2022-11-16T06:25:43.964Z,45.71
2022-11-16T06:26:43.982Z,45.76
2022-11-16T06:27:43.951Z,45.76
2022-11-16T06:28:43.959Z,45.66
2022-11-16T06:29:43.952Z,45.71
2022-11-16T06:30:43.931Z,45.81
2022-11-16T06:31:43.908Z,45.86
2022-11-16T06:32:43.910Z,45.51
2022-11-16T06:33:43.861Z,45.71
2022-11-16T06:34:43.874Z,45.41
2022-11-16T06:35:43.847Z,45.61
2022-11-16T06:36:43.832Z,45.61
2022-11-16T06:37:43.848Z,45.56
2022-11-16T06:38:43.820Z,45.61
2022-11-16T06:39:43.791Z,45.51
2022-11-16T06:40:43.787Z,45.46
2022-11-16T06:41:43.789Z,45.46
2022-11-16T06:42:43.810Z,45.46
2022-11-16T06:43:43.757Z,45.46
2022-11-16T06:44:43.754Z,45.61
2022-11-16T06:45:43.739Z,45.36
2022-11-16T06:46:43.723Z,45.76
2022-11-16T06:47:43.719Z,45.51
2022-11-16T06:48:43.740Z,45.22
2022-11-16T06:49:43.669Z,45.36
2022-11-16T06:50:43.747Z,45.27
2022-11-16T06:51:43.650Z,45.22
2022-11-16T06:52:43.693Z,44.97
2022-11-16T06:53:43.689Z,45.22
2022-11-16T06:54:43.624Z,45.02
2022-11-16T06:55:43.607Z,45.12
2022-11-16T06:56:43.606Z,44.93
2022-11-16T06:57:43.586Z,45.07
2022-11-16T06:58:43.570Z,45.12
2022-11-16T06:59:43.537Z,44.88
2022-11-16T07:00:43.542Z,44.88
2022-11-16T07:01:43.624Z,45.02
2022-11-16T07:02:43.513Z,44.83
2022-11-16T07:03:43.478Z,44.83
2022-11-16T07:04:43.487Z,44.78
2022-11-16T07:05:43.487Z,44.83
2022-11-16T07:06:43.509Z,44.78
2022-11-16T07:07:43.466Z,44.97
2022-11-16T07:08:43.472Z,44.83
2022-11-16T07:09:43.455Z,44.74
2022-11-16T07:10:43.413Z,44.69
2022-11-16T07:11:43.445Z,44.78
2022-11-16T07:12:43.374Z,44.64
2022-11-16T07:13:43.372Z,44.59
2022-11-16T07:14:43.331Z,44.64
2022-11-16T07:15:43.343Z,44.54
2022-11-16T07:16:43.300Z,44.50
2022-11-16T07:17:43.332Z,44.59
2022-11-16T07:18:43.309Z,44.50
2022-11-16T07:19:43.285Z,44.45
2022-11-16T07:20:43.270Z,44.26
2022-11-16T07:21:43.317Z,44.74
2022-11-16T07:22:43.250Z,44.36
2022-11-16T07:23:43.235Z,44.59
2022-11-16T07:24:43.230Z,44.31
2022-11-16T07:25:43.238Z,44.59
2022-11-16T07:26:43.211Z,44.59
2022-11-16T07:27:43.235Z,44.59
2022-11-16T07:28:47.987Z,44.36
2022-11-16T07:29:43.176Z,44.36
2022-11-16T07:30:43.168Z,44.22
2022-11-16T07:31:43.138Z,44.26
2022-11-16T07:32:43.137Z,44.31
2022-11-16T07:33:43.142Z,44.26
2022-11-16T07:34:43.078Z,44.22
2022-11-16T07:35:43.063Z,44.31
2022-11-16T07:36:43.111Z,44.36
2022-11-16T07:37:43.057Z,44.36
2022-11-16T07:38:43.047Z,44.40
2022-11-16T07:39:43.011Z,44.31
2022-11-16T07:40:43.010Z,44.08
2022-11-16T07:41:43.020Z,44.17
2022-11-16T07:42:43.002Z,44.12
2022-11-16T07:43:44.377Z,44.17
2022-11-16T07:44:42.980Z,44.08
2022-11-16T07:45:42.947Z,44.17
2022-11-16T07:46:47.949Z,44.17
2022-11-16T07:47:42.932Z,44.36
2022-11-16T07:48:42.902Z,44.12
2022-11-16T07:49:42.914Z,44.36
2022-11-16T07:50:42.883Z,44.12
2022-11-16T07:51:42.911Z,44.26
2022-11-16T07:52:42.839Z,44.03
2022-11-16T07:53:42.858Z,44.08
2022-11-16T07:54:42.828Z,44.17
2022-11-16T07:55:42.817Z,44.22
2022-11-16T07:56:42.805Z,44.03
2022-11-16T07:57:42.799Z,44.08
2022-11-16T07:58:42.773Z,44.12
2022-11-16T07:59:42.767Z,44.12
2022-11-16T08:00:42.755Z,44.17
2022-11-16T08:01:42.783Z,44.12
2022-11-16T08:02:42.735Z,43.94
2022-11-16T08:03:42.709Z,44.26
2022-11-16T08:04:42.759Z,43.98
2022-11-16T08:05:42.689Z,44.12
2022-11-16T08:06:42.664Z,43.98
2022-11-16T08:07:42.698Z,44.12
2022-11-16T08:08:42.635Z,44.08
2022-11-16T08:09:42.655Z,44.03
2022-11-16T08:10:42.608Z,44.17
2022-11-16T08:11:42.608Z,44.26
2022-11-16T08:12:42.597Z,43.94
2022-11-16T08:13:42.603Z,44.17
2022-11-16T08:14:42.579Z,44.12
2022-11-16T08:15:42.555Z,44.17
2022-11-16T08:16:42.734Z,44.26
2022-11-16T08:17:42.518Z,44.17
2022-11-16T08:18:42.547Z,44.22
2022-11-16T08:19:42.514Z,44.40
2022-11-16T08:20:42.525Z,44.17
2022-11-16T08:21:42.486Z,44.40
2022-11-16T08:22:42.458Z,44.31
2022-11-16T08:23:42.441Z,44.45
2022-11-16T08:24:42.440Z,44.40
2022-11-16T08:25:42.412Z,44.26
2022-11-16T08:26:42.422Z,44.54
2022-11-16T08:27:42.407Z,44.50
2022-11-16T08:28:42.400Z,44.59
2022-11-16T08:29:42.391Z,44.74
2022-11-16T08:30:42.369Z,44.69
2022-11-16T08:31:42.345Z,44.54
2022-11-16T08:32:42.355Z,44.74
2022-11-16T08:33:42.393Z,44.88
2022-11-16T08:34:42.415Z,44.69
2022-11-16T08:35:42.307Z,44.97
2022-11-16T08:36:42.281Z,44.78
2022-11-16T08:37:42.274Z,44.83
2022-11-16T08:38:42.239Z,44.97
2022-11-16T08:39:42.243Z,44.93
2022-11-16T08:40:42.214Z,45.07
2022-11-16T08:41:42.241Z,44.97
2022-11-16T08:42:43.827Z,44.97
2022-11-16T08:43:42.190Z,44.93
2022-11-16T08:44:42.167Z,45.17
2022-11-16T08:45:42.156Z,45.02
2022-11-16T08:46:42.132Z,45.07
2022-11-16T08:47:42.133Z,45.07
2022-11-16T08:48:42.114Z,45.12
2022-11-16T08:49:46.700Z,45.17
2022-11-16T08:51:15.454Z,45.46
2022-11-16T08:51:42.080Z,45.12
2022-11-16T08:52:42.083Z,45.46
2022-11-16T08:53:42.055Z,45.46
2022-11-16T08:54:42.039Z,45.22
2022-11-16T08:55:42.039Z,45.61
2022-11-16T08:56:42.023Z,45.56
2022-11-16T08:57:42.028Z,45.71
2022-11-16T08:58:41.983Z,45.61
2022-11-16T08:59:41.988Z,45.66
2022-11-16T09:00:41.956Z,45.51
2022-11-16T09:01:42.008Z,45.76
2022-11-16T09:02:41.948Z,45.96
2022-11-16T09:03:41.949Z,45.76
2022-11-16T09:04:41.934Z,45.51
2022-11-16T09:05:41.909Z,45.96
2022-11-16T09:06:41.875Z,45.86
2022-11-16T09:07:41.861Z,45.76
2022-11-16T09:08:41.874Z,46.01
2022-11-16T09:09:42.052Z,45.81
2022-11-16T09:10:41.849Z,45.81
2022-11-16T09:11:41.814Z,45.76
2022-11-16T09:12:41.824Z,45.46
2022-11-16T09:13:41.786Z,45.56
2022-11-16T09:14:41.779Z,45.41
2022-11-16T09:15:41.798Z,45.41
2022-11-16T09:16:41.754Z,45.51
2022-11-16T09:17:41.755Z,45.41
2022-11-16T09:18:41.715Z,45.12
2022-11-16T09:19:41.709Z,45.17
2022-11-16T09:20:41.701Z,45.51
2022-11-16T09:21:41.711Z,45.41
2022-11-16T09:22:41.669Z,45.41
2022-11-16T09:23:41.673Z,45.56
2022-11-16T09:24:41.652Z,45.36
2022-11-16T09:25:41.653Z,45.46
2022-11-16T09:26:41.652Z,45.51
2022-11-16T09:27:41.627Z,45.46
2022-11-16T09:28:41.608Z,45.76
2022-11-16T09:29:41.578Z,45.81
2022-11-16T09:30:41.564Z,45.96
2022-11-16T09:31:41.571Z,45.76
2022-11-16T09:32:41.594Z,45.86
2022-11-16T09:33:41.539Z,45.81
2022-11-16T09:34:41.517Z,45.86
2022-11-16T09:35:41.499Z,45.96
2022-11-16T09:36:41.538Z,46.16
2022-11-16T09:37:41.523Z,46.06
2022-11-16T09:39:13.289Z,46.11
2022-11-16T09:39:41.482Z,46.37
2022-11-16T09:40:41.455Z,46.42
2022-11-16T09:41:41.447Z,46.37
2022-11-16T09:42:41.417Z,46.63
2022-11-16T09:43:45.772Z,46.73
2022-11-16T09:44:41.447Z,46.89
2022-11-16T09:45:41.421Z,46.63
2022-11-16T09:46:41.418Z,46.89
2022-11-16T09:47:41.386Z,46.78
2022-11-16T09:48:41.379Z,46.94
2022-11-16T09:49:41.389Z,46.47
2022-11-16T09:50:41.372Z,46.73
2022-11-16T09:51:41.416Z,46.99
2022-11-16T09:52:41.449Z,46.94
2022-11-16T09:53:41.339Z,46.89
2022-11-16T09:54:41.312Z,46.96
2022-11-16T09:55:41.457Z,46.99
2022-11-16T09:56:41.254Z,46.96
2022-11-16T09:57:41.362Z,46.96
2022-11-16T10:05:56.667Z,52.07
2022-11-16T10:06:57.709Z,51.15
2022-11-16T10:07:57.617Z,51.03
2022-11-16T10:08:57.626Z,50.47
2022-11-16T10:09:57.626Z,50.29
2022-11-16T10:10:57.618Z,50.26
2022-11-16T10:11:57.647Z,50.05
2022-11-16T10:12:57.610Z,50.14
2022-11-16T10:14:02.821Z,49.90
2022-11-16T10:14:57.592Z,49.99
2022-11-16T10:15:57.562Z,49.93
2022-11-16T10:16:57.557Z,49.99
2022-11-16T10:17:57.521Z,49.78
2022-11-16T10:18:57.488Z,49.90
2022-11-16T10:19:57.517Z,49.99
2022-11-16T10:20:57.476Z,49.78
2022-11-16T10:21:57.484Z,49.61
2022-11-16T10:22:57.639Z,49.75
2022-11-16T10:23:57.449Z,49.84
2022-11-16T10:24:57.403Z,49.52
2022-11-16T10:25:57.407Z,49.46
2022-11-16T10:26:57.408Z,49.55
2022-11-16T10:27:57.409Z,49.55
2022-11-16T10:28:57.435Z,49.49
2022-11-16T10:29:57.342Z,49.58
2022-11-16T10:30:57.353Z,49.69
2022-11-16T10:31:57.332Z,49.64
2022-11-16T10:32:57.302Z,49.75
2022-11-16T10:33:57.360Z,50.11
2022-11-16T10:34:57.268Z,49.96
2022-11-16T10:35:57.321Z,50.11
2022-11-16T10:36:57.231Z,50.41
2022-11-16T10:37:57.318Z,50.35
2022-11-16T10:38:57.223Z,50.72
2022-11-16T10:39:57.217Z,50.66
2022-11-16T10:40:57.196Z,50.84
2022-11-16T10:41:57.176Z,50.90
2022-11-16T10:42:57.176Z,50.87
2022-11-16T10:43:57.181Z,50.81
2022-11-16T10:44:57.143Z,51.37
2022-11-16T10:45:57.155Z,51.40
2022-11-16T10:46:57.130Z,51.47
2022-11-16T10:47:57.098Z,51.91
2022-11-16T10:48:57.106Z,51.47
2022-11-16T10:49:57.120Z,51.69
2022-11-16T10:50:57.309Z,52.01
2022-11-16T10:51:57.064Z,52.63
2022-11-16T10:52:57.054Z,52.60
2022-11-16T10:53:57.050Z,52.83
2022-11-16T10:54:57.050Z,53.06
2022-11-16T10:55:57.030Z,53.54
2022-11-16T10:56:56.995Z,53.54
2022-11-16T10:57:57.017Z,54.20
2022-11-16T10:58:56.990Z,54.58
2022-11-16T10:59:56.990Z,54.84
2022-11-16T11:00:56.965Z,55.45
2022-11-16T11:01:56.933Z,56.24
2022-11-16T11:02:56.926Z,56.46
2022-11-16T11:03:56.923Z,57.00
2022-11-16T11:04:56.919Z,57.63
2022-11-16T11:05:56.907Z,58.27
2022-11-16T11:06:56.970Z,59.09
2022-11-16T11:07:59.555Z,59.98
2022-11-16T11:08:56.873Z,60.94
2022-11-16T11:09:56.898Z,61.75
2022-11-16T11:10:56.807Z,62.63
2022-11-16T11:11:56.844Z,63.43
2022-11-16T11:12:56.810Z,64.26
2022-11-16T11:13:56.789Z,65.01
2022-11-16T11:14:56.788Z,65.62
2022-11-16T11:15:56.737Z,66.19
2022-11-16T11:16:56.782Z,66.88
2022-11-16T11:17:56.793Z,67.25
2022-11-16T11:18:56.736Z,68.02
2022-11-16T11:19:56.712Z,68.46
2022-11-16T11:20:56.706Z,68.57
2022-11-16T11:21:56.725Z,69.08
2022-11-16T11:22:56.670Z,69.26
2022-11-16T11:24:10.555Z,69.72
2022-11-16T11:24:56.630Z,70.36
2022-11-16T11:25:56.612Z,70.90
2022-11-16T11:26:56.591Z,71.32
2022-11-16T11:27:56.593Z,71.81
2022-11-16T11:28:56.565Z,72.43
2022-11-16T11:29:56.584Z,73.32
2022-11-16T11:30:56.530Z,73.96
2022-11-16T11:31:56.555Z,74.16
2022-11-16T11:32:56.525Z,74.49
2022-11-16T11:33:56.509Z,74.76
2022-11-16T11:34:56.492Z,75.36
2022-11-16T11:35:56.470Z,75.77
2022-11-16T11:36:56.476Z,76.74
2022-11-16T11:37:56.477Z,77.17
2022-11-16T11:38:56.523Z,77.53
2022-11-16T11:39:56.416Z,78.47
2022-11-16T11:40:56.405Z,78.69
2022-11-16T11:41:56.426Z,79.44
2022-11-16T11:42:56.460Z,79.51
2022-11-16T11:43:56.382Z,79.51
2022-11-16T11:44:56.376Z,79.74
2022-11-16T11:45:56.363Z,80.35
2022-11-16T11:47:42.509Z,80.66
2022-11-16T11:48:00.797Z,80.66
2022-11-16T11:48:56.327Z,80.12
2022-11-16T11:49:56.354Z,80.28
2022-11-16T11:50:56.285Z,79.89
2022-11-16T11:51:56.294Z,79.82
2022-11-16T11:52:56.297Z,80.20
2022-11-16T11:53:56.296Z,80.43
2022-11-16T11:54:56.334Z,81.37
2022-11-16T11:55:56.264Z,81.61
2022-11-16T11:56:56.241Z,82.08
2022-11-16T11:57:56.302Z,82.08
2022-11-16T11:58:56.278Z,82.33
2022-11-16T11:59:56.212Z,82.00
2022-11-16T12:00:56.158Z,82.73
2022-11-16T12:01:56.129Z,83.06
2022-11-16T12:02:56.142Z,83.48
2022-11-16T12:03:56.141Z,83.64
2022-11-16T12:04:56.104Z,84.57
2022-11-16T12:05:56.127Z,84.57
2022-11-16T12:06:56.131Z,85.17
2022-11-16T12:07:56.060Z,85.43
2022-11-16T12:08:56.185Z,86.23
2022-11-16T12:09:56.707Z,86.49
2022-11-16T12:10:56.028Z,87.21
2022-11-16T12:11:56.035Z,86.76
2022-11-16T12:12:56.029Z,86.94
2022-11-16T12:13:56.046Z,87.49
2022-11-16T12:14:55.977Z,87.58
2022-11-16T12:15:55.962Z,88.04
2022-11-16T12:16:55.970Z,88.22
2022-11-16T12:17:55.980Z,89.07
2022-11-16T12:18:55.942Z,89.83
2022-11-16T12:19:55.935Z,89.64
2022-11-16T12:20:55.895Z,90.51
2022-11-16T12:21:55.926Z,90.42
2022-11-16T12:23:01.036Z,90.81
2022-11-16T12:23:55.891Z,91.00
2022-11-16T12:24:55.843Z,90.61
2022-11-16T12:25:55.847Z,90.81
2022-11-16T12:26:55.821Z,90.51
2022-11-16T12:27:55.806Z,90.81
2022-11-16T12:28:55.795Z,90.32
2022-11-16T12:29:55.793Z,90.32
2022-11-16T12:30:55.744Z,89.74
2022-11-16T12:31:55.827Z,89.54
2022-11-16T12:32:55.741Z,89.26
2022-11-16T12:33:55.778Z,89.26
2022-11-16T12:34:55.690Z,89.45
2022-11-16T12:35:55.683Z,89.35
2022-11-16T12:36:55.667Z,89.83
2022-11-16T12:37:55.657Z,90.03
2022-11-16T12:38:55.848Z,90.42
2022-11-16T12:39:55.668Z,90.22
2022-11-16T12:40:55.637Z,90.22
2022-11-16T12:41:55.610Z,90.61
2022-11-16T12:42:55.604Z,90.61
2022-11-16T12:43:55.611Z,90.42
2022-11-16T12:44:55.581Z,91.00
2022-11-16T12:45:55.572Z,90.51
2022-11-16T12:46:55.547Z,89.64
2022-11-16T12:47:55.543Z,89.83
2022-11-16T12:48:55.521Z,89.54
2022-11-16T12:49:55.497Z,89.93
2022-11-16T12:50:55.504Z,90.03
2022-11-16T12:51:55.493Z,90.12
2022-11-16T12:52:55.479Z,90.22
2022-11-16T12:53:55.507Z,90.22
2022-11-16T12:55:24.319Z,91.20
2022-11-16T12:55:55.540Z,90.71
2022-11-16T12:56:55.488Z,91.00
2022-11-16T12:57:55.394Z,91.80
2022-11-16T12:58:55.377Z,91.80
2022-11-16T12:59:55.381Z,92.61
2022-11-16T13:00:55.690Z,92.61